Time;durP1;ratioP1;P1;durP2;ratioP2;P2;SDS_P1;SDS_P2;PMS_P1;PMS_P2;Temp;Humidity;BMP_temperature;BMP_pressure;BME280_temperature;BME280_humidity;BME280_pressure;Samples;Min_cycle;Max_cycle;Signal;HPM_P1;HPM_P2
2022/12/26 00:03:40;;;;;;;3.25;1.45;;;;;;;9.65;100.00;97938.06;15284692;19;20014;-56
2022/12/26 00:09:05;;;;;;;1.30;1.20;;;;;;;9.63;100.00;97932.00;15291433;19;20013;-56
2022/12/26 00:14:32;;;;;;;1.77;1.40;;;;;;;9.62;100.00;97943.78;15288909;19;20020;-55
2022/12/26 00:19:57;;;;;;;2.00;1.20;;;;;;;9.64;100.00;97947.16;15288269;19;20018;-57
2022/12/26 00:25:21;;;;;;;2.10;1.30;;;;;;;9.61;100.00;97963.59;15290949;19;20095;-54
2022/12/26 00:30:49;;;;;;;3.42;1.48;;;;;;;9.59;100.00;97971.84;15291787;19;20023;-55
2022/12/26 00:36:15;;;;;;;1.42;1.30;;;;;;;9.57;100.00;97960.41;15282195;19;20845;-58
2022/12/26 00:41:40;;;;;;;2.92;1.63;;;;;;;9.61;100.00;97934.03;15183938;19;2004093;-55
2022/12/26 00:47:07;;;;;;;1.33;1.10;;;;;;;9.64;100.00;97933.69;15290399;19;20045;-55
2022/12/26 00:52:32;;;;;;;3.55;1.20;;;;;;;9.80;100.00;97943.63;15285071;19;20040;-55
2022/12/26 00:57:56;;;;;;;1.30;1.20;;;;;;;9.83;100.00;97940.59;15282973;19;20018;-55
2022/12/26 01:03:24;;;;;;;1.33;1.23;;;;;;;9.84;100.00;97926.97;15288125;19;20018;-54
2022/12/26 01:08:48;;;;;;;1.10;1.00;;;;;;;9.85;100.00;97927.81;15280133;19;20492;-56
2022/12/26 01:14:14;;;;;;;2.08;1.10;;;;;;;9.83;100.00;97913.69;15287986;19;20010;-56
2022/12/26 01:19:41;;;;;;;1.05;0.98;;;;;;;9.84;100.00;97916.19;15286810;19;20081;-55
2022/12/26 01:25:07;;;;;;;1.40;1.10;;;;;;;9.85;100.00;97920.56;15281739;19;20025;-56
2022/12/26 01:30:32;;;;;;;1.40;1.17;;;;;;;9.83;100.00;97936.03;15269915;19;20021;-64
2022/12/26 01:36:01;;;;;;;2.65;1.20;;;;;;;9.74;100.00;97936.22;15289159;19;20526;-63
2022/12/26 01:41:26;;;;;;;1.08;0.98;;;;;;;9.62;100.00;97955.38;15283976;19;20014;-64
2022/12/26 01:46:54;;;;;;;2.20;1.40;;;;;;;9.56;100.00;97959.59;15288663;19;20017;-63
2022/12/26 01:52:27;;;;;;;2.28;1.40;;;;;;;9.37;100.00;97958.03;15289897;19;20098;-63
2022/12/26 01:57:58;;;;;;;3.00;1.30;;;;;;;9.41;100.00;97954.00;15279928;19;20021;-64
2022/12/26 02:09:03;;;;;;;1.45;1.33;;;;;;;9.48;100.00;97938.03;15279428;19;20082;-65
2022/12/26 02:14:28;;;;;;;1.60;1.20;;;;;;;9.55;100.00;97922.94;15282825;19;20425;-65
2022/12/26 02:20:05;;;;;;;1.20;1.10;;;;;;;9.54;100.00;97932.00;15283831;19;20017;-65
2022/12/26 02:25:53;;;;;;;1.83;1.35;;;;;;;9.43;100.00;97964.59;15285366;19;20010;-63
2022/12/26 02:31:36;;;;;;;1.92;1.50;;;;;;;9.43;100.00;97958.38;15279099;19;20011;-64
2022/12/26 02:37:17;;;;;;;2.40;1.50;;;;;;;9.38;100.00;97967.78;15290772;19;20078;-64
2022/12/26 02:42:46;;;;;;;;;;;;;;;9.32;100.00;97964.91;15293954;19;20013;-63
2022/12/26 02:48:19;;;;;;;2.45;1.50;;;;;;;9.37;100.00;97951.81;15297819;19;19921;-63
2022/12/26 03:22:32;;;;;;;2.22;1.60;;;;;;;9.25;100.00;97962.88;15300507;19;20102;-63
2022/12/26 03:27:57;;;;;;;1.48;1.35;;;;;;;9.27;100.00;97960.03;15300774;19;20090;-63
2022/12/26 04:19:22;;;;;;;3.20;1.40;;;;;;;9.31;100.00;97973.97;15297742;19;20009;-64
2022/12/26 04:20:00;;;;;;;1.77;1.10;;;;;;;9.68;100.00;97986.16;15282100;19;20010;-63
2022/12/26 04:54:27;;;;;;;3.67;1.30;;;;;;;9.94;100.00;97990.53;15286633;19;20015;-64
2022/12/26 04:59:52;;;;;;;1.30;1.00;;;;;;;9.94;100.00;97994.06;15289754;19;20085;-64
2022/12/26 05:10:58;;;;;;;2.90;1.20;;;;;;;10.12;100.00;97985.81;15281005;19;20089;-65
2022/12/26 05:39:00;;;;;;;2.45;0.98;;;;;;;10.30;100.00;97950.63;15280183;19;20025;-65
2022/12/26 05:44:26;;;;;;;2.03;1.10;;;;;;;10.25;100.00;97928.75;15272891;19;20597;-64
2022/12/26 05:49:50;;;;;;;4.07;1.17;;;;;;;10.16;100.00;97936.03;15281602;19;20535;-62
2022/12/26 05:55:18;;;;;;;2.13;1.00;;;;;;;10.10;100.00;97944.78;15275743;19;20353;-62
2022/12/26 06:00:43;;;;;;;1.92;1.08;;;;;;;10.01;100.00;97951.19;15278087;19;20074;-64
2022/12/26 06:06:08;;;;;;;2.38;1.10;;;;;;;9.96;100.00;97967.84;15282467;19;21074;-63
2022/12/26 06:11:36;;;;;;;2.45;1.23;;;;;;;9.90;100.00;97967.66;15279634;19;20023;-67
2022/12/26 06:17:07;;;;;;;2.20;1.02;;;;;;;9.90;100.00;97978.44;15276258;19;20086;-66
2022/12/26 06:22:31;;;;;;;1.90;0.90;;;;;;;9.92;100.00;97979.13;15279330;19;20019;-63
2022/12/26 06:27:58;;;;;;;2.08;0.98;;;;;;;9.92;100.00;97979.13;15276305;19;20032;-64
2022/12/26 06:33:24;;;;;;;1.75;1.10;;;;;;;9.92;100.00;97992.56;15283712;19;20017;-64
2022/12/26 06:38:49;;;;;;;3.33;1.10;;;;;;;9.92;100.00;97988.00;15279608;19;20024;-64
2022/12/26 06:44:18;;;;;;;2.28;1.13;;;;;;;9.86;100.00;97988.69;15280347;19;20018;-64
2022/12/26 06:49:43;;;;;;;1.55;1.02;;;;;;;9.71;100.00;97991.19;15272461;19;20041;-61
2022/12/26 06:55:07;;;;;;;1.60;1.20;;;;;;;9.63;100.00;97999.25;15279385;19;20028;-63
2022/12/26 07:00:34;;;;;;;1.63;1.20;;;;;;;9.62;100.00;98011.00;15271204;19;20010;-61
2022/12/26 07:06:01;;;;;;;2.00;1.20;;;;;;;9.62;100.00;98013.69;15274549;19;20027;-62
2022/12/26 07:11:29;;;;;;;1.58;1.17;;;;;;;9.58;100.00;98015.06;15280108;19;20010;-62
2022/12/26 07:16:58;;;;;;;2.53;1.30;;;;;;;9.56;100.00;98042.94;15278798;19;20535;-60
2022/12/26 07:22:23;;;;;;;1.25;1.02;;;;;;;9.65;100.00;98030.34;15280343;19;20736;-62
2022/12/26 07:27:47;;;;;;;1.48;1.05;;;;;;;9.68;100.00;98013.88;15294273;19;20519;-61
2022/12/26 07:33:14;;;;;;;1.52;1.30;;;;;;;9.66;100.00;98026.66;15287562;19;20354;-61
2022/12/26 07:38:41;;;;;;;2.40;1.20;;;;;;;9.68;100.00;98046.16;15290309;19;20035;-61
2022/12/26 07:44:06;;;;;;;4.40;1.20;;;;;;;9.71;100.00;98034.22;15292156;19;20023;-61
2022/12/26 07:49:33;;;;;;;1.50;1.08;;;;;;;9.73;100.00;98034.06;15290599;19;20539;-60
2022/12/26 07:54:58;;;;;;;1.77;1.10;;;;;;;9.79;100.00;98025.31;15285456;19;20011;-60
2022/12/26 08:00:23;;;;;;;2.80;1.30;;;;;;;9.91;100.00;98047.38;15288177;19;20464;-61
2022/12/26 08:05:51;;;;;;;1.55;1.02;;;;;;;9.98;100.00;98051.94;15286864;19;20017;-60
2022/12/26 08:11:27;;;;;;;1.80;1.00;;;;;;;10.06;100.00;98043.00;15291756;19;20018;-60
2022/12/26 08:16:52;;;;;;;2.58;1.05;;;;;;;10.12;100.00;98045.03;15289243;19;20010;-60
2022/12/26 08:22:19;;;;;;;1.02;0.93;;;;;;;10.13;100.00;98051.25;15289643;19;20531;-60
2022/12/26 08:27:44;;;;;;;2.13;0.90;;;;;;;10.18;100.00;98073.97;15284744;19;20162;-61
2022/12/26 08:33:08;;;;;;;2.65;1.13;;;;;;;10.25;100.00;98059.84;15288447;19;20024;-61
2022/12/26 08:38:35;;;;;;;1.95;1.10;;;;;;;10.25;100.00;98063.38;15281822;19;20014;-60
2022/12/26 08:44:01;;;;;;;2.33;1.00;;;;;;;10.28;100.00;98040.69;15288765;19;20017;-62
2022/12/26 08:49:46;;;;;;;1.88;1.30;;;;;;;10.28;100.00;98036.13;15290007;19;20014;-61
2022/12/26 08:55:14;;;;;;;1.08;0.93;;;;;;;10.31;100.00;98056.47;15289426;19;20014;-61
2022/12/26 09:00:39;;;;;;;2.85;1.02;;;;;;;10.35;100.00;98047.06;15277549;19;20018;-59
2022/12/26 09:06:12;;;;;;;2.58;1.00;;;;;;;10.50;100.00;98043.72;15286288;19;20031;-60
2022/12/26 09:11:40;;;;;;;2.22;1.00;;;;;;;10.57;100.00;98050.09;15279331;19;20026;-61
2022/12/26 09:17:04;;;;;;;1.15;0.90;;;;;;;10.72;100.00;98053.78;15284474;19;20756;-59
2022/12/26 09:28:09;;;;;;;2.72;0.90;;;;;;;10.93;100.00;98076.63;15284346;19;20022;-61
2022/12/26 09:33:36;;;;;;;1.60;0.90;;;;;;;10.90;100.00;98069.75;15279577;19;20010;-61
2022/12/26 09:39:01;;;;;;;1.67;0.98;;;;;;;10.92;100.00;98058.78;15283230;19;20033;-58
2022/12/26 09:44:37;;;;;;;1.10;0.70;;;;;;;10.94;100.00;98051.38;15277680;19;20102;-59
2022/12/26 09:50:05;;;;;;;2.60;0.80;;;;;;;11.03;100.00;98053.03;15283735;19;20025;-57
2022/12/26 09:55:40;;;;;;;1.33;0.70;;;;;;;11.02;100.00;98047.81;15276334;19;20018;-57
2022/12/26 10:01:16;;;;;;;1.30;0.70;;;;;;;11.11;100.00;98049.47;15276112;19;20051;-59
2022/12/26 10:06:51;;;;;;;1.30;0.75;;;;;;;11.15;100.00;98060.72;15283143;19;20013;-59
2022/12/26 10:12:36;;;;;;;0.98;0.70;;;;;;;11.14;100.00;98065.28;15274050;19;20028;-59
2022/12/26 10:18:11;;;;;;;1.27;0.70;;;;;;;11.18;100.00;98039.66;15281453;19;20482;-59
2022/12/26 10:23:39;;;;;;;1.15;0.60;;;;;;;11.19;100.00;98054.00;15281561;19;20021;-58
2022/12/26 10:29:08;;;;;;;1.38;0.70;;;;;;;11.16;100.00;98065.13;15281514;19;20031;-59
2022/12/26 10:34:40;;;;;;;1.00;0.70;;;;;;;11.16;100.00;98076.75;15273948;19;20041;-57
2022/12/26 10:40:09;;;;;;;1.23;0.70;;;;;;;11.16;100.00;98054.31;15283188;19;20013;-60
2022/12/26 10:45:42;;;;;;;1.02;0.65;;;;;;;11.10;100.00;98056.72;15283798;19;20010;-58
2022/12/26 10:51:10;;;;;;;1.17;0.60;;;;;;;11.07;100.00;98057.06;15285970;19;20006;-58
2022/12/26 10:56:35;;;;;;;1.15;0.70;;;;;;;11.02;100.00;98064.81;15283652;19;20021;-58
2022/12/26 11:01:59;;;;;;;0.60;0.52;;;;;;;10.97;100.00;98082.50;15294302;19;20094;-58
2022/12/26 11:07:28;;;;;;;1.50;0.77;;;;;;;10.88;100.00;98089.78;15290938;19;20014;-56
2022/12/26 11:12:55;;;;;;;1.23;0.70;;;;;;;10.63;100.00;98130.25;15294466;19;20018;-59
2022/12/26 11:18:23;;;;;;;0.75;0.30;;;;;;;10.11;100.00;98140.25;15285147;19;20359;-57
2022/12/26 11:23:54;;;;;;;0.32;0.10;;;;;;;9.78;100.00;98125.88;15293708;19;20026;-57
2022/12/26 11:29:22;;;;;;;0.10;0.10;;;;;;;9.54;100.00;98122.94;15293357;19;20026;-56
2022/12/26 11:34:52;;;;;;;0.13;0.10;;;;;;;9.44;100.00;98146.44;15293138;19;20014;-58
2022/12/26 11:40:29;;;;;;;0.47;0.10;;;;;;;9.39;100.00;98133.47;15287062;19;20014;-58
2022/12/26 11:45:58;;;;;;;0.32;0.15;;;;;;;9.18;100.00;98136.56;15293915;19;20086;-58
2022/12/26 11:51:35;;;;;;;0.10;0.10;;;;;;;9.03;100.00;98149.75;15287054;19;20077;-58
2022/12/26 11:57:25;;;;;;;0.20;0.20;;;;;;;8.92;100.00;98148.16;15293371;19;20034;-55
2022/12/26 12:02:51;;;;;;;0.20;0.13;;;;;;;8.83;100.00;98141.03;15291758;19;20033;-57
2022/12/26 12:08:38;;;;;;;0.35;0.10;;;;;;;8.77;100.00;98141.66;15289345;19;21605;-58
2022/12/26 12:14:19;;;;;;;0.28;0.20;;;;;;;8.72;100.00;98154.72;15282461;19;20024;-58
2022/12/26 12:19:54;;;;;;;0.20;0.20;;;;;;;8.71;100.00;98150.34;15286753;19;20481;-57
2022/12/26 12:25:44;;;;;;;0.35;0.15;;;;;;;8.66;100.00;98190.25;15282259;19;20017;-58
2022/12/26 12:31:30;;;;;;;1.08;0.20;;;;;;;8.64;100.00;98159.00;15283787;19;20070;-59
2022/12/26 12:37:06;;;;;;;0.50;0.20;;;;;;;8.64;100.00;98167.06;15286237;19;20002;-58
2022/12/26 12:42:57;;;;;;;0.28;0.28;;;;;;;8.68;100.00;98151.50;15279839;19;20396;-60
2022/12/26 12:49:01;;;;;;;0.20;0.20;;;;;;;8.71;100.00;98166.47;15287626;19;20019;-62
2022/12/26 12:54:46;;;;;;;0.60;0.20;;;;;;;8.77;100.00;98142.50;15279277;19;20073;-63
2022/12/26 13:00:20;;;;;;;0.50;0.20;;;;;;;8.77;100.00;98145.19;15285753;19;20490;-61
2022/12/26 13:05:54;;;;;;;0.28;0.28;;;;;;;8.76;100.00;98140.00;15287070;19;20410;-63
2022/12/26 13:11:25;;;;;;;0.40;0.30;;;;;;;8.73;100.00;98129.56;15286074;19;20015;-61
2022/12/26 13:16:54;;;;;;;0.20;0.20;;;;;;;8.70;100.00;98125.31;15279903;19;20018;-61
2022/12/26 13:22:27;;;;;;;0.30;0.30;;;;;;;8.73;100.00;98116.13;15284287;19;20355;-62
2022/12/26 13:28:08;;;;;;;2.17;0.40;;;;;;;8.75;100.00;98127.56;15279987;19;20022;-58
2022/12/26 13:33:34;;;;;;;0.88;0.40;;;;;;;8.82;100.00;98125.91;15284642;19;20022;-61
2022/12/26 13:39:31;;;;;;;0.63;0.20;;;;;;;8.90;100.00;98114.38;15282162;19;20086;-60
2022/12/26 13:45:33;;;;;;;0.50;0.30;;;;;;;8.92;100.00;98107.84;15276464;19;20006;-62
2022/12/26 13:51:00;;;;;;;0.43;0.40;;;;;;;8.94;100.00;98103.16;15274602;19;20037;-59
2022/12/26 13:57:11;;;;;;;0.52;0.30;;;;;;;8.98;100.00;98092.94;15279309;19;20082;-60
2022/12/26 14:03:10;;;;;;;0.30;0.30;;;;;;;9.00;100.00;98095.44;15273361;19;20495;-60
2022/12/26 14:08:42;;;;;;;;;;;;;;;8.98;100.00;98116.28;15279654;19;20024;-59
2022/12/26 14:14:24;;;;;;;0.40;0.40;;;;;;;8.98;100.00;98108.22;15282492;19;19932;-56
2022/12/26 14:20:04;;;;;;;0.40;0.40;;;;;;;8.98;100.00;98108.22;15276023;19;20014;-60
2022/12/26 14:25:37;;;;;;;0.32;0.30;;;;;;;8.86;100.00;98104.94;15280029;19;20016;-60
2022/12/26 14:31:27;;;;;;;0.93;0.50;;;;;;;8.90;100.00;98101.78;15272789;19;20028;-59
2022/12/26 14:37:01;;;;;;;0.88;0.50;;;;;;;8.94;100.00;98108.53;15296697;19;20019;-58
2022/12/26 14:48:38;;;;;;;0.53;0.50;;;;;;;8.75;100.00;98106.06;15291575;19;20022;-60
2022/12/26 14:54:45;;;;;;;0.50;0.50;;;;;;;8.58;100.00;98114.00;15288082;19;20017;-59
2022/12/26 15:00:33;;;;;;;0.82;0.70;;;;;;;8.51;100.00;98115.63;15290675;19;20484;-58
2022/12/26 15:05:59;;;;;;;1.58;0.88;;;;;;;8.35;100.00;98127.00;15285066;19;20600;-58
2022/12/26 15:11:53;;;;;;;0.75;0.75;;;;;;;8.28;100.00;98134.88;15294484;19;20015;-58
2022/12/26 15:17:28;;;;;;;1.27;0.80;;;;;;;8.22;100.00;98135.47;15289789;19;20034;-56
2022/12/26 15:23:23;;;;;;;1.10;0.70;;;;;;;8.18;100.00;98128.72;15290149;19;20059;-59
2022/12/26 15:29:21;;;;;;;1.15;0.80;;;;;;;8.22;100.00;98129.28;15287316;19;20872;-58
2022/12/26 15:34:58;;;;;;;1.25;0.80;;;;;;;8.36;100.00;98106.41;15283792;19;20669;-58
2022/12/26 15:40:27;;;;;;;0.98;0.80;;;;;;;8.46;100.00;98125.94;15287868;19;20018;-60
2022/12/26 15:46:04;;;;;;;0.93;0.80;;;;;;;8.38;100.00;98117.84;15290522;19;20412;-60
2022/12/26 15:51:41;;;;;;;1.35;0.80;;;;;;;8.48;100.00;98132.03;15287418;19;20048;-61
2022/12/26 15:57:19;;;;;;;0.60;0.60;;;;;;;8.46;100.00;98117.91;15281023;19;20019;-60
2022/12/26 16:02:55;;;;;;;0.83;0.80;;;;;;;8.52;100.00;98116.47;15286968;19;20538;-61
2022/12/26 16:08:58;;;;;;;1.10;0.70;;;;;;;8.54;100.00;98123.34;15280127;19;20010;-61
2022/12/26 16:14:35;;;;;;;1.65;0.70;;;;;;;8.56;100.00;98121.34;15287250;19;20348;-56
2022/12/26 16:22:42;;;;;;;0.70;0.70;;;;;;;8.55;100.00;98118.84;15284594;19;20538;-58
2022/12/26 16:26:05;;;;;;;1.90;1.50;;;;;;;8.50;100.00;98138.09;15289658;19;20403;-59
2022/12/26 16:31:38;;;;;;;1.77;1.23;;;;;;;8.53;100.00;98110.91;15281259;19;20090;-58
2022/12/26 16:37:06;;;;;;;0.60;0.60;;;;;;;8.50;100.00;98100.53;15286506;19;20077;-59
2022/12/26 16:42:38;;;;;;;0.65;0.65;;;;;;;8.54;100.00;98115.28;15276016;19;20036;-60
2022/12/26 16:48:06;;;;;;;1.73;0.80;;;;;;;8.52;100.00;98114.63;15288941;19;20406;-59
2022/12/26 16:53:51;;;;;;;1.80;1.02;;;;;;;8.52;100.00;98111.09;15284129;19;20413;-56
2022/12/26 16:59:20;;;;;;;1.40;0.75;;;;;;;8.54;100.00;98103.72;15287295;19;20018;-57
2022/12/26 17:04:45;;;;;;;1.08;0.80;;;;;;;8.51;100.00;98112.09;15280418;19;20014;-56
2022/12/26 17:10:25;;;;;;;1.45;0.70;;;;;;;8.38;100.00;98107.09;15278104;19;20014;-61
2022/12/26 17:15:59;;;;;;;1.52;0.65;;;;;;;8.31;100.00;98121.13;15287319;19;20397;-56
2022/12/26 17:21:30;;;;;;;1.05;0.70;;;;;;;8.27;100.00;98110.84;15282163;19;20043;-59
2022/12/26 17:27:00;;;;;;;0.73;0.70;;;;;;;8.26;100.00;98144.91;15285603;19;20019;-59
2022/12/26 17:32:40;;;;;;;0.80;0.70;;;;;;;8.35;100.00;98144.97;15285556;19;20025;-60
2022/12/26 17:38:13;;;;;;;0.60;0.60;;;;;;;8.35;100.00;98144.97;15281530;19;20364;-59
2022/12/26 17:43:44;;;;;;;0.93;0.60;;;;;;;8.33;100.00;98132.56;15270221;19;20085;-56
2022/12/26 17:49:09;;;;;;;0.97;0.70;;;;;;;8.33;100.00;98132.56;15280963;19;20026;-55
2022/12/26 17:54:33;;;;;;;1.25;0.77;;;;;;;8.41;100.00;98147.88;15280786;19;20501;-58
2022/12/26 18:00:00;;;;;;;0.77;0.60;;;;;;;8.48;100.00;98134.72;15281359;19;20652;-58
2022/12/26 18:05:29;;;;;;;1.80;0.60;;;;;;;8.49;100.00;98152.53;15276302;19;20010;-57
2022/12/26 18:10:54;;;;;;;1.17;0.50;;;;;;;8.46;100.00;98125.94;15278888;19;20034;-57
2022/12/26 18:16:28;;;;;;;0.43;0.40;;;;;;;8.42;100.00;98130.78;15276295;19;20231;-57
2022/12/26 18:21:53;;;;;;;0.28;0.28;;;;;;;8.63;100.00;98140.38;15279761;19;20022;-59
2022/12/26 18:27:25;;;;;;;0.40;0.30;;;;;;;8.73;100.00;98159.09;15280719;19;20015;-58
2022/12/26 18:32:59;;;;;;;;;;;;;;;8.18;100.00;98217.25;15275432;19;20017;-58
2022/12/26 18:38:24;;;;;;;0.20;0.20;;;;;;;7.79;100.00;98231.75;15275973;19;20294;-59
2022/12/26 18:43:48;;;;;;;1.50;0.30;;;;;;;7.45;100.00;98245.72;15280941;19;20082;-57
2022/12/26 18:49:17;;;;;;;0.82;0.25;;;;;;;7.24;100.00;98243.22;15274104;19;20082;-58
2022/12/26 18:54:41;;;;;;;0.20;0.20;;;;;;;7.11;100.00;98272.16;15282107;19;20026;-56
2022/12/26 19:00:09;;;;;;;0.22;0.20;;;;;;;7.09;100.00;98283.88;15278286;19;20028;-57
2022/12/26 19:05:39;;;;;;;0.77;0.35;;;;;;;7.04;100.00;98280.75;15278906;19;20073;-59
2022/12/26 19:11:04;;;;;;;0.43;0.28;;;;;;;7.01;100.00;98280.19;15273499;19;20014;-60
2022/12/26 19:16:28;;;;;;;0.65;0.30;;;;;;;6.98;100.00;98281.34;15278538;19;20418;-59
2022/12/26 19:21:55;;;;;;;0.43;0.30;;;;;;;7.00;100.00;98279.34;15281865;19;20131;-59
2022/12/26 19:27:21;;;;;;;0.43;0.28;;;;;;;6.97;100.00;98294.84;15292980;19;20017;-59
2022/12/26 19:32:53;;;;;;;0.30;0.30;;;;;;;6.92;100.00;98288.13;15288122;19;20018;-60
2022/12/26 19:38:21;;;;;;;0.30;0.30;;;;;;;6.88;100.00;98308.13;15290952;19;20014;-60
2022/12/26 19:43:46;;;;;;;0.63;0.30;;;;;;;6.78;100.00;98291.19;15286309;19;20082;-60
2022/12/26 19:49:11;;;;;;;0.40;0.30;;;;;;;6.78;100.00;98289.34;15290807;19;20040;-60
2022/12/26 19:54:38;;;;;;;0.15;0.10;;;;;;;6.83;100.00;98245.25;15284752;19;20078;-60
2022/12/26 20:00:03;;;;;;;0.32;0.20;;;;;;;6.91;100.00;98275.69;15281976;19;20025;-59
2022/12/26 20:05:27;;;;;;;0.52;0.30;;;;;;;6.82;100.00;98289.09;15287045;19;20014;-58
2022/12/26 20:10:55;;;;;;;0.30;0.30;;;;;;;6.73;100.00;98318.41;15287186;19;20014;-58
2022/12/26 20:16:22;;;;;;;1.42;0.25;;;;;;;6.64;100.00;98329.94;15284524;19;20015;-59
2022/12/26 20:22:08;;;;;;;0.30;0.20;;;;;;;6.53;100.00;98335.38;15283376;19;20019;-59
2022/12/26 20:27:35;;;;;;;0.20;0.20;;;;;;;6.48;100.00;98338.47;15281014;19;20018;-60
2022/12/26 20:33:07;;;;;;;0.43;0.30;;;;;;;6.48;100.00;98343.84;15285133;19;20025;-60
2022/12/26 20:38:32;;;;;;;0.43;0.40;;;;;;;6.43;100.00;98378.22;15287873;19;20018;-60
2022/12/26 20:44:00;;;;;;;0.40;0.40;;;;;;;6.31;100.00;98417.59;15287687;19;20066;-61
2022/12/26 20:49:31;;;;;;;1.30;0.60;;;;;;;5.99;100.00;98435.47;15259042;19;20014;-63
2022/12/26 20:54:56;;;;;;;1.47;0.90;;;;;;;5.60;100.00;98461.03;15286897;19;20094;-63
2022/12/26 21:00:25;;;;;;;1.77;0.80;;;;;;;5.47;100.00;98472.75;15274878;19;20356;-63
2022/12/26 21:05:50;;;;;;;3.55;1.10;;;;;;;5.31;100.00;98483.03;15284069;19;20629;-63
2022/12/26 21:11:16;;;;;;;1.52;0.90;;;;;;;5.19;100.00;98487.53;15285463;19;20033;-61
2022/12/26 21:16:47;;;;;;;2.90;1.10;;;;;;;5.03;100.00;98493.28;15284455;19;20017;-63
2022/12/26 21:22:11;;;;;;;2.67;1.20;;;;;;;4.87;100.00;98497.19;15275742;19;20014;-63
2022/12/26 21:27:36;;;;;;;2.50;1.10;;;;;;;4.79;100.00;98504.97;15281090;19;20488;-63
2022/12/26 21:33:15;;;;;;;2.60;1.25;;;;;;;4.72;100.00;98525.09;15278427;19;20021;-62
2022/12/26 21:38:40;;;;;;;2.55;1.30;;;;;;;4.59;100.00;98519.88;15281803;19;20017;-64
2022/12/26 21:44:04;;;;;;;2.72;1.40;;;;;;;4.54;100.00;98528.25;15281180;19;20020;-64
2022/12/26 21:49:32;;;;;;;3.42;1.50;;;;;;;4.50;100.00;98526.81;15279733;19;20018;-64
2022/12/26 22:00:36;;;;;;;2.65;1.30;;;;;;;4.52;100.00;98542.69;15270281;19;20769;-62
2022/12/26 22:06:03;;;;;;;3.38;1.33;;;;;;;4.53;100.00;98526.53;15278974;19;20078;-63
2022/12/26 22:17:05;;;;;;;2.85;1.40;;;;;;;4.51;100.00;98559.66;15284558;19;20014;-62
2022/12/26 22:22:33;;;;;;;4.57;1.67;;;;;;;4.56;100.00;98563.66;15282695;19;20010;-62
2022/12/26 22:27:57;;;;;;;2.25;1.50;;;;;;;4.51;100.00;98565.00;15276205;19;20011;-63
2022/12/26 22:33:28;;;;;;;3.33;1.55;;;;;;;4.54;100.00;98570.94;15269118;19;20010;-63
2022/12/26 22:38:56;;;;;;;2.57;1.50;;;;;;;4.56;100.00;98579.69;15281075;19;20081;-62
2022/12/26 22:44:22;;;;;;;3.75;1.83;;;;;;;4.51;100.00;98607.69;15280822;19;20417;-62
2022/12/26 22:49:47;;;;;;;5.10;1.75;;;;;;;4.44;100.00;98608.16;15278507;19;20146;-62
2022/12/26 22:55:15;;;;;;;2.90;1.23;;;;;;;4.43;100.00;98626.94;15293589;19;20045;-61
2022/12/26 23:00:41;;;;;;;2.30;1.50;;;;;;;4.26;100.00;98631.75;15288393;19;20016;-62
2022/12/26 23:06:06;;;;;;;3.47;1.38;;;;;;;4.15;100.00;98650.38;15289551;19;20464;-61
2022/12/26 23:11:36;;;;;;;2.58;1.30;;;;;;;4.12;100.00;98645.28;15296732;19;20015;-62
2022/12/26 23:17:05;;;;;;;3.42;1.50;;;;;;;4.05;100.00;98647.53;15292120;19;20026;-62
2022/12/26 23:22:31;;;;;;;4.03;1.52;;;;;;;3.90;100.00;98660.19;15289930;19;20021;-61
2022/12/26 23:33:42;;;;;;;3.22;1.30;;;;;;;3.65;100.00;98679.78;15284135;19;20025;-61
2022/12/26 23:39:07;;;;;;;3.60;1.17;;;;;;;3.61;100.00;98665.81;15282998;19;20014;-61
2022/12/26 23:44:34;;;;;;;3.97;1.33;;;;;;;3.49;100.00;98664.06;15283490;19;20014;-61
2022/12/26 23:49:59;;;;;;;3.05;1.20;;;;;;;3.42;100.00;98678.78;15287795;19;20010;-62
2022/12/26 23:55:23;;;;;;;3.88;1.45;;;;;;;3.37;100.00;98698.59;15290423;19;20010;-62
